sensor_id;sensor_type;location;lat;lon;timestamp;P1;durP1;ratioP1;P2;durP2;ratioP2
25824;SDS011;13658;44.534;18.694;2023-02-15T00:02:25;233.25;;;110.38;;
25824;SDS011;13658;44.534;18.694;2023-02-15T00:04:51;231.60;;;105.18;;
25824;SDS011;13658;44.534;18.694;2023-02-15T00:07:18;183.35;;;87.15;;
25824;SDS011;13658;44.534;18.694;2023-02-15T00:09:45;182.77;;;86.50;;
25824;SDS011;13658;44.534;18.694;2023-02-15T00:12:12;179.93;;;86.10;;
25824;SDS011;13658;44.534;18.694;2023-02-15T00:14:38;172.45;;;83.38;;
25824;SDS011;13658;44.534;18.694;2023-02-15T00:17:04;174.73;;;80.93;;
25824;SDS011;13658;44.534;18.694;2023-02-15T00:19:30;173.40;;;82.47;;
25824;SDS011;13658;44.534;18.694;2023-02-15T00:21:56;191.02;;;91.95;;
25824;SDS011;13658;44.534;18.694;2023-02-15T00:24:22;185.80;;;86.63;;
25824;SDS011;13658;44.534;18.694;2023-02-15T00:26:48;197.82;;;91.05;;
25824;SDS011;13658;44.534;18.694;2023-02-15T00:29:15;194.68;;;90.70;;
25824;SDS011;13658;44.534;18.694;2023-02-15T00:31:42;207.00;;;93.00;;
25824;SDS011;13658;44.534;18.694;2023-02-15T00:34:13;193.38;;;91.53;;
25824;SDS011;13658;44.534;18.694;2023-02-15T00:36:41;225.75;;;103.50;;
25824;SDS011;13658;44.534;18.694;2023-02-15T00:39:08;212.70;;;98.80;;
25824;SDS011;13658;44.534;18.694;2023-02-15T00:41:34;221.00;;;97.88;;
25824;SDS011;13658;44.534;18.694;2023-02-15T00:44:01;225.02;;;104.55;;
25824;SDS011;13658;44.534;18.694;2023-02-15T00:46:28;212.13;;;100.13;;
25824;SDS011;13658;44.534;18.694;2023-02-15T00:48:54;204.23;;;91.32;;
25824;SDS011;13658;44.534;18.694;2023-02-15T00:51:20;199.57;;;88.68;;
25824;SDS011;13658;44.534;18.694;2023-02-15T00:53:46;193.63;;;87.07;;
25824;SDS011;13658;44.534;18.694;2023-02-15T00:56:13;199.07;;;88.40;;
25824;SDS011;13658;44.534;18.694;2023-02-15T00:58:39;199.43;;;87.60;;
25824;SDS011;13658;44.534;18.694;2023-02-15T01:01:09;185.80;;;83.25;;
25824;SDS011;13658;44.534;18.694;2023-02-15T01:03:36;189.77;;;85.18;;
25824;SDS011;13658;44.534;18.694;2023-02-15T01:06:03;190.32;;;84.20;;
25824;SDS011;13658;44.534;18.694;2023-02-15T01:08:30;190.68;;;84.50;;
25824;SDS011;13658;44.534;18.694;2023-02-15T01:10:56;197.50;;;86.93;;
25824;SDS011;13658;44.534;18.694;2023-02-15T01:13:29;194.43;;;85.20;;
25824;SDS011;13658;44.534;18.694;2023-02-15T01:15:55;192.73;;;85.07;;
25824;SDS011;13658;44.534;18.694;2023-02-15T01:18:21;160.95;;;70.53;;
25824;SDS011;13658;44.534;18.694;2023-02-15T01:20:47;155.82;;;71.82;;
25824;SDS011;13658;44.534;18.694;2023-02-15T01:23:13;162.00;;;72.22;;
25824;SDS011;13658;44.534;18.694;2023-02-15T01:25:40;149.60;;;70.50;;
25824;SDS011;13658;44.534;18.694;2023-02-15T01:28:06;155.18;;;70.88;;
25824;SDS011;13658;44.534;18.694;2023-02-15T01:30:33;139.88;;;66.70;;
25824;SDS011;13658;44.534;18.694;2023-02-15T01:32:59;126.68;;;60.65;;
25824;SDS011;13658;44.534;18.694;2023-02-15T01:35:26;136.07;;;64.40;;
25824;SDS011;13658;44.534;18.694;2023-02-15T01:37:53;141.20;;;66.60;;
25824;SDS011;13658;44.534;18.694;2023-02-15T01:40:20;124.13;;;58.70;;
25824;SDS011;13658;44.534;18.694;2023-02-15T01:42:49;121.30;;;58.33;;
25824;SDS011;13658;44.534;18.694;2023-02-15T01:50:41;117.85;;;56.20;;
25824;SDS011;13658;44.534;18.694;2023-02-15T01:53:34;123.00;;;60.22;;
25824;SDS011;13658;44.534;18.694;2023-02-15T01:56:04;115.90;;;55.95;;
25824;SDS011;13658;44.534;18.694;2023-02-15T01:58:33;117.63;;;56.20;;
25824;SDS011;13658;44.534;18.694;2023-02-15T02:01:01;119.38;;;56.50;;
25824;SDS011;13658;44.534;18.694;2023-02-15T02:06:18;107.38;;;52.30;;
25824;SDS011;13658;44.534;18.694;2023-02-15T02:08:46;95.10;;;49.13;;
25824;SDS011;13658;44.534;18.694;2023-02-15T02:11:13;90.28;;;45.35;;
25824;SDS011;13658;44.534;18.694;2023-02-15T02:13:40;96.78;;;48.25;;
25824;SDS011;13658;44.534;18.694;2023-02-15T02:16:14;98.88;;;47.22;;
25824;SDS011;13658;44.534;18.694;2023-02-15T02:18:45;99.70;;;49.40;;
25824;SDS011;13658;44.534;18.694;2023-02-15T02:27:00;93.10;;;45.95;;
25824;SDS011;13658;44.534;18.694;2023-02-15T02:46:22;118.78;;;54.35;;
25824;SDS011;13658;44.534;18.694;2023-02-15T02:48:50;128.88;;;59.22;;
25824;SDS011;13658;44.534;18.694;2023-02-15T02:51:16;127.40;;;58.00;;
25824;SDS011;13658;44.534;18.694;2023-02-15T02:53:47;131.30;;;59.75;;
25824;SDS011;13658;44.534;18.694;2023-02-15T02:56:26;122.70;;;57.22;;
25824;SDS011;13658;44.534;18.694;2023-02-15T02:59:06;112.53;;;52.83;;
25824;SDS011;13658;44.534;18.694;2023-02-15T03:01:46;98.18;;;48.47;;
25824;SDS011;13658;44.534;18.694;2023-02-15T03:04:21;92.78;;;45.97;;
25824;SDS011;13658;44.534;18.694;2023-02-15T03:07:15;97.07;;;47.72;;
25824;SDS011;13658;44.534;18.694;2023-02-15T03:09:49;103.32;;;49.80;;
25824;SDS011;13658;44.534;18.694;2023-02-15T03:12:21;103.55;;;51.03;;
25824;SDS011;13658;44.534;18.694;2023-02-15T03:15:03;104.53;;;50.35;;
25824;SDS011;13658;44.534;18.694;2023-02-15T03:17:34;96.70;;;47.53;;
25824;SDS011;13658;44.534;18.694;2023-02-15T03:20:16;103.45;;;48.35;;
25824;SDS011;13658;44.534;18.694;2023-02-15T03:23:09;96.57;;;46.55;;
25824;SDS011;13658;44.534;18.694;2023-02-15T03:25:40;93.65;;;47.67;;
25824;SDS011;13658;44.534;18.694;2023-02-15T03:28:48;75.05;;;37.15;;
25824;SDS011;13658;44.534;18.694;2023-02-15T03:31:09;88.25;;;45.05;;
25824;SDS011;13658;44.534;18.694;2023-02-15T03:33:38;88.50;;;44.70;;
25824;SDS011;13658;44.534;18.694;2023-02-15T03:36:24;86.93;;;42.40;;
25824;SDS011;13658;44.534;18.694;2023-02-15T03:41:45;78.13;;;39.95;;
25824;SDS011;13658;44.534;18.694;2023-02-15T03:44:30;73.07;;;37.65;;
25824;SDS011;13658;44.534;18.694;2023-02-15T03:47:09;83.05;;;42.50;;
25824;SDS011;13658;44.534;18.694;2023-02-15T03:52:12;78.10;;;40.33;;
25824;SDS011;13658;44.534;18.694;2023-02-15T03:54:40;83.05;;;39.95;;
25824;SDS011;13658;44.534;18.694;2023-02-15T03:57:21;84.57;;;41.80;;
25824;SDS011;13658;44.534;18.694;2023-02-15T04:05:54;81.78;;;40.85;;
25824;SDS011;13658;44.534;18.694;2023-02-15T04:08:20;79.72;;;41.22;;
25824;SDS011;13658;44.534;18.694;2023-02-15T04:15:58;86.22;;;40.25;;
25824;SDS011;13658;44.534;18.694;2023-02-15T04:18:30;83.15;;;41.42;;
25824;SDS011;13658;44.534;18.694;2023-02-15T04:21:20;80.43;;;38.90;;
25824;SDS011;13658;44.534;18.694;2023-02-15T04:26:50;83.20;;;40.42;;
25824;SDS011;13658;44.534;18.694;2023-02-15T04:29:19;86.72;;;42.47;;
25824;SDS011;13658;44.534;18.694;2023-02-15T04:31:46;83.70;;;41.08;;
25824;SDS011;13658;44.534;18.694;2023-02-15T04:34:12;82.93;;;42.55;;
25824;SDS011;13658;44.534;18.694;2023-02-15T04:36:39;83.32;;;43.80;;
25824;SDS011;13658;44.534;18.694;2023-02-15T04:39:06;119.88;;;59.58;;
25824;SDS011;13658;44.534;18.694;2023-02-15T04:41:33;102.68;;;51.83;;
25824;SDS011;13658;44.534;18.694;2023-02-15T04:43:59;82.90;;;43.08;;
25824;SDS011;13658;44.534;18.694;2023-02-15T04:46:26;84.57;;;42.83;;
25824;SDS011;13658;44.534;18.694;2023-02-15T04:48:52;92.28;;;47.90;;
25824;SDS011;13658;44.534;18.694;2023-02-15T04:51:19;80.78;;;41.47;;
25824;SDS011;13658;44.534;18.694;2023-02-15T04:53:45;77.00;;;40.30;;
25824;SDS011;13658;44.534;18.694;2023-02-15T04:56:11;81.30;;;39.85;;
25824;SDS011;13658;44.534;18.694;2023-02-15T04:58:37;111.68;;;48.45;;
25824;SDS011;13658;44.534;18.694;2023-02-15T05:01:09;132.23;;;55.05;;
25824;SDS011;13658;44.534;18.694;2023-02-15T05:03:35;152.40;;;59.50;;
25824;SDS011;13658;44.534;18.694;2023-02-15T05:06:02;84.05;;;42.00;;
25824;SDS011;13658;44.534;18.694;2023-02-15T05:08:28;106.28;;;47.70;;
25824;SDS011;13658;44.534;18.694;2023-02-15T05:10:55;129.43;;;54.58;;
25824;SDS011;13658;44.534;18.694;2023-02-15T05:13:22;145.85;;;58.53;;
25824;SDS011;13658;44.534;18.694;2023-02-15T05:15:48;111.35;;;51.35;;
25824;SDS011;13658;44.534;18.694;2023-02-15T05:18:18;116.30;;;50.63;;
25824;SDS011;13658;44.534;18.694;2023-02-15T05:20:46;100.45;;;47.55;;
25824;SDS011;13658;44.534;18.694;2023-02-15T05:23:12;100.50;;;46.50;;
25824;SDS011;13658;44.534;18.694;2023-02-15T05:25:38;103.30;;;49.50;;
25824;SDS011;13658;44.534;18.694;2023-02-15T05:28:24;97.22;;;47.88;;
25824;SDS011;13658;44.534;18.694;2023-02-15T05:31:05;96.13;;;47.47;;
25824;SDS011;13658;44.534;18.694;2023-02-15T05:33:44;99.43;;;48.40;;
25824;SDS011;13658;44.534;18.694;2023-02-15T05:36:10;101.32;;;49.50;;
25824;SDS011;13658;44.534;18.694;2023-02-15T05:38:37;115.75;;;55.67;;
25824;SDS011;13658;44.534;18.694;2023-02-15T05:41:07;111.78;;;54.55;;
25824;SDS011;13658;44.534;18.694;2023-02-15T05:43:34;119.25;;;54.13;;
25824;SDS011;13658;44.534;18.694;2023-02-15T05:46:00;74.80;;;38.75;;
25824;SDS011;13658;44.534;18.694;2023-02-15T05:48:27;73.72;;;38.92;;
25824;SDS011;13658;44.534;18.694;2023-02-15T05:51:06;80.43;;;39.70;;
25824;SDS011;13658;44.534;18.694;2023-02-15T05:53:38;76.13;;;38.65;;
25824;SDS011;13658;44.534;18.694;2023-02-15T05:56:05;75.57;;;38.30;;
25824;SDS011;13658;44.534;18.694;2023-02-15T05:58:34;80.22;;;40.72;;
25824;SDS011;13658;44.534;18.694;2023-02-15T06:01:19;114.05;;;53.17;;
25824;SDS011;13658;44.534;18.694;2023-02-15T06:03:47;120.30;;;54.60;;
25824;SDS011;13658;44.534;18.694;2023-02-15T06:06:14;99.50;;;47.88;;
25824;SDS011;13658;44.534;18.694;2023-02-15T06:08:40;101.07;;;48.92;;
25824;SDS011;13658;44.534;18.694;2023-02-15T06:11:07;95.75;;;49.65;;
25824;SDS011;13658;44.534;18.694;2023-02-15T06:13:33;94.97;;;48.28;;
25824;SDS011;13658;44.534;18.694;2023-02-15T06:16:00;93.20;;;46.70;;
25824;SDS011;13658;44.534;18.694;2023-02-15T06:18:26;90.65;;;46.95;;
25824;SDS011;13658;44.534;18.694;2023-02-15T06:20:52;107.10;;;52.95;;
25824;SDS011;13658;44.534;18.694;2023-02-15T06:23:18;117.50;;;55.72;;
25824;SDS011;13658;44.534;18.694;2023-02-15T06:25:44;125.85;;;59.67;;
25824;SDS011;13658;44.534;18.694;2023-02-15T06:28:11;137.82;;;62.28;;
25824;SDS011;13658;44.534;18.694;2023-02-15T06:30:37;169.90;;;77.93;;
25824;SDS011;13658;44.534;18.694;2023-02-15T06:33:03;169.35;;;79.40;;
25824;SDS011;13658;44.534;18.694;2023-02-15T06:35:29;172.25;;;79.88;;
25824;SDS011;13658;44.534;18.694;2023-02-15T06:37:55;176.40;;;81.68;;
25824;SDS011;13658;44.534;18.694;2023-02-15T06:40:21;168.20;;;79.57;;
25824;SDS011;13658;44.534;18.694;2023-02-15T06:42:47;170.45;;;80.18;;
25824;SDS011;13658;44.534;18.694;2023-02-15T06:45:13;181.90;;;84.10;;
25824;SDS011;13658;44.534;18.694;2023-02-15T06:47:39;188.85;;;86.88;;
25824;SDS011;13658;44.534;18.694;2023-02-15T06:50:06;188.05;;;81.47;;
25824;SDS011;13658;44.534;18.694;2023-02-15T06:52:32;121.20;;;59.08;;
25824;SDS011;13658;44.534;18.694;2023-02-15T06:54:58;134.75;;;61.85;;
25824;SDS011;13658;44.534;18.694;2023-02-15T06:57:24;107.10;;;54.25;;
25824;SDS011;13658;44.534;18.694;2023-02-15T06:59:50;131.68;;;61.92;;
25824;SDS011;13658;44.534;18.694;2023-02-15T07:02:17;194.00;;;84.55;;
25824;SDS011;13658;44.534;18.694;2023-02-15T07:04:43;176.50;;;81.55;;
25824;SDS011;13658;44.534;18.694;2023-02-15T07:07:10;155.85;;;75.22;;
25824;SDS011;13658;44.534;18.694;2023-02-15T07:09:37;144.45;;;68.05;;
25824;SDS011;13658;44.534;18.694;2023-02-15T07:12:03;134.88;;;68.13;;
25824;SDS011;13658;44.534;18.694;2023-02-15T07:14:48;129.38;;;65.88;;
25824;SDS011;13658;44.534;18.694;2023-02-15T07:17:14;114.90;;;60.50;;
25824;SDS011;13658;44.534;18.694;2023-02-15T07:19:41;123.82;;;63.65;;
25824;SDS011;13658;44.534;18.694;2023-02-15T07:22:07;113.28;;;61.10;;
25824;SDS011;13658;44.534;18.694;2023-02-15T07:24:33;119.60;;;63.38;;
25824;SDS011;13658;44.534;18.694;2023-02-15T07:26:59;104.40;;;57.55;;
25824;SDS011;13658;44.534;18.694;2023-02-15T07:29:25;104.88;;;58.65;;
25824;SDS011;13658;44.534;18.694;2023-02-15T07:31:51;88.78;;;51.00;;
25824;SDS011;13658;44.534;18.694;2023-02-15T07:34:17;83.18;;;48.88;;
25824;SDS011;13658;44.534;18.694;2023-02-15T07:36:43;93.85;;;52.25;;
25824;SDS011;13658;44.534;18.694;2023-02-15T07:39:10;102.18;;;55.45;;
25824;SDS011;13658;44.534;18.694;2023-02-15T07:41:36;115.70;;;60.55;;
25824;SDS011;13658;44.534;18.694;2023-02-15T07:44:13;105.20;;;57.05;;
25824;SDS011;13658;44.534;18.694;2023-02-15T07:46:40;109.18;;;58.15;;
25824;SDS011;13658;44.534;18.694;2023-02-15T07:49:06;114.25;;;59.60;;
25824;SDS011;13658;44.534;18.694;2023-02-15T07:51:32;109.80;;;58.60;;
25824;SDS011;13658;44.534;18.694;2023-02-15T07:53:58;106.35;;;58.70;;
25824;SDS011;13658;44.534;18.694;2023-02-15T07:56:24;109.03;;;56.83;;
25824;SDS011;13658;44.534;18.694;2023-02-15T07:58:50;117.22;;;57.70;;
25824;SDS011;13658;44.534;18.694;2023-02-15T08:01:16;111.45;;;57.97;;
25824;SDS011;13658;44.534;18.694;2023-02-15T08:03:47;110.63;;;57.05;;
25824;SDS011;13658;44.534;18.694;2023-02-15T08:06:13;114.53;;;58.42;;
25824;SDS011;13658;44.534;18.694;2023-02-15T08:08:40;104.72;;;56.22;;
25824;SDS011;13658;44.534;18.694;2023-02-15T08:13:51;108.15;;;55.08;;
25824;SDS011;13658;44.534;18.694;2023-02-15T08:16:33;102.18;;;52.47;;
25824;SDS011;13658;44.534;18.694;2023-02-15T08:21:33;93.90;;;48.05;;
25824;SDS011;13658;44.534;18.694;2023-02-15T08:24:01;90.78;;;48.83;;
25824;SDS011;13658;44.534;18.694;2023-02-15T08:26:28;78.40;;;44.33;;
25824;SDS011;13658;44.534;18.694;2023-02-15T08:28:55;52.40;;;29.92;;
25824;SDS011;13658;44.534;18.694;2023-02-15T08:31:21;40.40;;;24.33;;
25824;SDS011;13658;44.534;18.694;2023-02-15T08:33:48;39.00;;;24.15;;
25824;SDS011;13658;44.534;18.694;2023-02-15T08:36:17;47.95;;;30.42;;
25824;SDS011;13658;44.534;18.694;2023-02-15T08:38:44;42.28;;;26.35;;
25824;SDS011;13658;44.534;18.694;2023-02-15T08:41:11;29.58;;;21.85;;
25824;SDS011;13658;44.534;18.694;2023-02-15T08:43:39;35.13;;;25.45;;
25824;SDS011;13658;44.534;18.694;2023-02-15T08:46:05;35.97;;;25.38;;
25824;SDS011;13658;44.534;18.694;2023-02-15T08:48:32;31.00;;;22.92;;
25824;SDS011;13658;44.534;18.694;2023-02-15T08:50:58;26.95;;;19.85;;
25824;SDS011;13658;44.534;18.694;2023-02-15T08:53:30;29.80;;;22.73;;
25824;SDS011;13658;44.534;18.694;2023-02-15T08:55:57;29.90;;;23.92;;
25824;SDS011;13658;44.534;18.694;2023-02-15T08:58:23;35.38;;;26.75;;
25824;SDS011;13658;44.534;18.694;2023-02-15T09:00:50;36.10;;;26.75;;
25824;SDS011;13658;44.534;18.694;2023-02-15T09:03:16;45.92;;;28.75;;
25824;SDS011;13658;44.534;18.694;2023-02-15T09:05:42;34.78;;;27.05;;
25824;SDS011;13658;44.534;18.694;2023-02-15T09:08:08;35.60;;;28.13;;
25824;SDS011;13658;44.534;18.694;2023-02-15T09:10:34;40.78;;;31.58;;
25824;SDS011;13658;44.534;18.694;2023-02-15T09:13:00;33.90;;;28.05;;
25824;SDS011;13658;44.534;18.694;2023-02-15T09:15:26;28.60;;;24.38;;
25824;SDS011;13658;44.534;18.694;2023-02-15T09:17:52;27.92;;;23.58;;
25824;SDS011;13658;44.534;18.694;2023-02-15T09:20:18;28.95;;;24.15;;
25824;SDS011;13658;44.534;18.694;2023-02-15T09:22:44;31.42;;;25.80;;
25824;SDS011;13658;44.534;18.694;2023-02-15T09:25:10;32.97;;;24.02;;
25824;SDS011;13658;44.534;18.694;2023-02-15T09:27:38;32.65;;;24.77;;
25824;SDS011;13658;44.534;18.694;2023-02-15T09:30:05;26.52;;;21.20;;
25824;SDS011;13658;44.534;18.694;2023-02-15T09:32:31;25.60;;;20.05;;
25824;SDS011;13658;44.534;18.694;2023-02-15T09:34:57;28.30;;;21.60;;
25824;SDS011;13658;44.534;18.694;2023-02-15T09:37:23;38.47;;;28.92;;
25824;SDS011;13658;44.534;18.694;2023-02-15T09:39:49;27.23;;;23.55;;
25824;SDS011;13658;44.534;18.694;2023-02-15T09:58:51;28.40;;;21.27;;
25824;SDS011;13658;44.534;18.694;2023-02-15T10:01:52;27.27;;;21.17;;
25824;SDS011;13658;44.534;18.694;2023-02-15T10:26:42;27.20;;;21.23;;
25824;SDS011;13658;44.534;18.694;2023-02-15T10:32:44;28.50;;;21.65;;
25824;SDS011;13658;44.534;18.694;2023-02-15T10:40:44;24.50;;;20.80;;
25824;SDS011;13658;44.534;18.694;2023-02-15T10:43:16;27.80;;;21.55;;
25824;SDS011;13658;44.534;18.694;2023-02-15T10:46:09;24.83;;;20.23;;
25824;SDS011;13658;44.534;18.694;2023-02-15T10:54:45;25.40;;;19.90;;
25824;SDS011;13658;44.534;18.694;2023-02-15T10:57:34;25.92;;;19.65;;
25824;SDS011;13658;44.534;18.694;2023-02-15T11:06:08;26.77;;;19.13;;
25824;SDS011;13658;44.534;18.694;2023-02-15T11:08:44;31.55;;;23.63;;
25824;SDS011;13658;44.534;18.694;2023-02-15T11:11:31;23.55;;;17.88;;
25824;SDS011;13658;44.534;18.694;2023-02-15T11:14:09;22.88;;;18.02;;
25824;SDS011;13658;44.534;18.694;2023-02-15T11:16:36;25.70;;;18.70;;
25824;SDS011;13658;44.534;18.694;2023-02-15T11:19:12;25.00;;;18.63;;
25824;SDS011;13658;44.534;18.694;2023-02-15T11:21:49;27.27;;;19.00;;
25824;SDS011;13658;44.534;18.694;2023-02-15T11:24:18;27.75;;;19.13;;
25824;SDS011;13658;44.534;18.694;2023-02-15T11:26:54;24.50;;;16.52;;
25824;SDS011;13658;44.534;18.694;2023-02-15T11:34:51;23.90;;;15.93;;
25824;SDS011;13658;44.534;18.694;2023-02-15T11:37:23;24.17;;;15.48;;
25824;SDS011;13658;44.534;18.694;2023-02-15T11:39:54;21.70;;;14.73;;
25824;SDS011;13658;44.534;18.694;2023-02-15T11:42:22;25.10;;;14.68;;
25824;SDS011;13658;44.534;18.694;2023-02-15T11:45:33;24.98;;;15.68;;
25824;SDS011;13658;44.534;18.694;2023-02-15T11:47:46;26.35;;;15.70;;
25824;SDS011;13658;44.534;18.694;2023-02-15T11:50:14;23.23;;;13.93;;
25824;SDS011;13658;44.534;18.694;2023-02-15T11:52:43;27.17;;;16.35;;
25824;SDS011;13658;44.534;18.694;2023-02-15T11:55:11;23.20;;;14.32;;
25824;SDS011;13658;44.534;18.694;2023-02-15T11:57:43;22.70;;;14.20;;
25824;SDS011;13658;44.534;18.694;2023-02-15T12:02:50;22.58;;;15.05;;
25824;SDS011;13658;44.534;18.694;2023-02-15T12:05:19;24.42;;;14.98;;
25824;SDS011;13658;44.534;18.694;2023-02-15T12:08:01;26.13;;;16.63;;
25824;SDS011;13658;44.534;18.694;2023-02-15T12:10:34;22.25;;;14.65;;
25824;SDS011;13658;44.534;18.694;2023-02-15T12:15:34;24.45;;;16.13;;
25824;SDS011;13658;44.534;18.694;2023-02-15T12:18:01;25.80;;;16.08;;
25824;SDS011;13658;44.534;18.694;2023-02-15T12:20:29;23.42;;;15.13;;
25824;SDS011;13658;44.534;18.694;2023-02-15T12:23:02;22.98;;;15.18;;
25824;SDS011;13658;44.534;18.694;2023-02-15T12:25:37;24.17;;;15.57;;
25824;SDS011;13658;44.534;18.694;2023-02-15T12:31:07;25.88;;;16.27;;
25824;SDS011;13658;44.534;18.694;2023-02-15T12:33:44;24.13;;;16.38;;
25824;SDS011;13658;44.534;18.694;2023-02-15T12:36:12;24.73;;;15.00;;
25824;SDS011;13658;44.534;18.694;2023-02-15T12:41:43;22.80;;;14.02;;
25824;SDS011;13658;44.534;18.694;2023-02-15T12:44:21;20.95;;;13.65;;
25824;SDS011;13658;44.534;18.694;2023-02-15T12:46:58;24.33;;;13.80;;
25824;SDS011;13658;44.534;18.694;2023-02-15T12:49:26;22.83;;;13.93;;
25824;SDS011;13658;44.534;18.694;2023-02-15T12:52:03;24.88;;;13.90;;
25824;SDS011;13658;44.534;18.694;2023-02-15T12:54:50;20.88;;;12.52;;
25824;SDS011;13658;44.534;18.694;2023-02-15T12:59:49;28.95;;;15.32;;
25824;SDS011;13658;44.534;18.694;2023-02-15T13:02:26;17.95;;;12.82;;
25824;SDS011;13658;44.534;18.694;2023-02-15T13:07:38;30.58;;;18.60;;
25824;SDS011;13658;44.534;18.694;2023-02-15T13:13:21;28.58;;;18.48;;
25824;SDS011;13658;44.534;18.694;2023-02-15T13:15:51;24.95;;;15.20;;
25824;SDS011;13658;44.534;18.694;2023-02-15T13:18:39;20.67;;;12.88;;
25824;SDS011;13658;44.534;18.694;2023-02-15T13:21:10;18.65;;;12.75;;
25824;SDS011;13658;44.534;18.694;2023-02-15T13:23:43;20.45;;;13.23;;
25824;SDS011;13658;44.534;18.694;2023-02-15T13:26:15;24.55;;;15.23;;
25824;SDS011;13658;44.534;18.694;2023-02-15T13:28:45;27.40;;;16.23;;
25824;SDS011;13658;44.534;18.694;2023-02-15T13:31:23;31.70;;;16.52;;
25824;SDS011;13658;44.534;18.694;2023-02-15T13:33:54;20.65;;;12.98;;
25824;SDS011;13658;44.534;18.694;2023-02-15T13:39:29;23.85;;;15.48;;
25824;SDS011;13658;44.534;18.694;2023-02-15T13:42:36;22.75;;;14.27;;
25824;SDS011;13658;44.534;18.694;2023-02-15T13:45:16;22.42;;;14.07;;
25824;SDS011;13658;44.534;18.694;2023-02-15T13:48:55;26.27;;;16.10;;
25824;SDS011;13658;44.534;18.694;2023-02-15T13:53:34;24.10;;;14.70;;
25824;SDS011;13658;44.534;18.694;2023-02-15T13:56:06;23.83;;;14.63;;
25824;SDS011;13658;44.534;18.694;2023-02-15T13:58:47;22.92;;;14.70;;
25824;SDS011;13658;44.534;18.694;2023-02-15T14:01:48;20.67;;;13.43;;
25824;SDS011;13658;44.534;18.694;2023-02-15T14:30:10;24.75;;;14.60;;
25824;SDS011;13658;44.534;18.694;2023-02-15T14:32:23;22.15;;;14.82;;
25824;SDS011;13658;44.534;18.694;2023-02-15T14:35:16;26.58;;;15.80;;
25824;SDS011;13658;44.534;18.694;2023-02-15T14:43:31;27.17;;;15.90;;
25824;SDS011;13658;44.534;18.694;2023-02-15T14:49:21;25.40;;;15.88;;
25824;SDS011;13658;44.534;18.694;2023-02-15T14:51:55;24.08;;;15.70;;
25824;SDS011;13658;44.534;18.694;2023-02-15T14:59:36;25.80;;;16.70;;
25824;SDS011;13658;44.534;18.694;2023-02-15T15:07:08;25.83;;;16.67;;
25824;SDS011;13658;44.534;18.694;2023-02-15T15:09:39;27.27;;;16.98;;
25824;SDS011;13658;44.534;18.694;2023-02-15T15:12:13;26.55;;;16.05;;
25824;SDS011;13658;44.534;18.694;2023-02-15T15:14:47;24.98;;;16.35;;
25824;SDS011;13658;44.534;18.694;2023-02-15T15:22:42;72.57;;;39.38;;
25824;SDS011;13658;44.534;18.694;2023-02-15T15:25:12;65.03;;;36.35;;
25824;SDS011;13658;44.534;18.694;2023-02-15T15:28:05;70.15;;;38.05;;
25824;SDS011;13658;44.534;18.694;2023-02-15T15:32:59;75.22;;;41.65;;
25824;SDS011;13658;44.534;18.694;2023-02-15T15:49:57;106.53;;;56.20;;
25824;SDS011;13658;44.534;18.694;2023-02-15T15:52:25;89.10;;;47.05;;
25824;SDS011;13658;44.534;18.694;2023-02-15T15:54:54;125.00;;;63.03;;
25824;SDS011;13658;44.534;18.694;2023-02-15T15:57:30;76.03;;;40.28;;
25824;SDS011;13658;44.534;18.694;2023-02-15T16:00:05;114.10;;;53.97;;
25824;SDS011;13658;44.534;18.694;2023-02-15T16:03:12;90.88;;;46.72;;
25824;SDS011;13658;44.534;18.694;2023-02-15T16:05:47;112.70;;;55.60;;
25824;SDS011;13658;44.534;18.694;2023-02-15T16:08:29;109.72;;;55.00;;
25824;SDS011;13658;44.534;18.694;2023-02-15T16:11:00;86.75;;;42.58;;
25824;SDS011;13658;44.534;18.694;2023-02-15T16:13:36;74.13;;;39.92;;
25824;SDS011;13658;44.534;18.694;2023-02-15T16:16:06;73.68;;;39.15;;
25824;SDS011;13658;44.534;18.694;2023-02-15T16:18:32;91.70;;;46.70;;
25824;SDS011;13658;44.534;18.694;2023-02-15T16:21:04;117.72;;;58.20;;
25824;SDS011;13658;44.534;18.694;2023-02-15T16:29:18;113.90;;;53.47;;
25824;SDS011;13658;44.534;18.694;2023-02-15T16:34:50;85.22;;;44.22;;
25824;SDS011;13658;44.534;18.694;2023-02-15T16:37:25;95.60;;;48.17;;
25824;SDS011;13658;44.534;18.694;2023-02-15T16:40:00;131.73;;;64.60;;
25824;SDS011;13658;44.534;18.694;2023-02-15T16:42:26;108.97;;;57.20;;
25824;SDS011;13658;44.534;18.694;2023-02-15T16:44:58;142.52;;;68.55;;
25824;SDS011;13658;44.534;18.694;2023-02-15T16:47:29;151.07;;;75.07;;
25824;SDS011;13658;44.534;18.694;2023-02-15T16:50:00;174.70;;;84.60;;
25824;SDS011;13658;44.534;18.694;2023-02-15T16:52:29;193.25;;;89.80;;
25824;SDS011;13658;44.534;18.694;2023-02-15T16:54:56;236.50;;;117.47;;
25824;SDS011;13658;44.534;18.694;2023-02-15T16:57:32;231.65;;;112.15;;
25824;SDS011;13658;44.534;18.694;2023-02-15T17:00:02;216.90;;;104.90;;
25824;SDS011;13658;44.534;18.694;2023-02-15T17:02:33;214.45;;;103.72;;
25824;SDS011;13658;44.534;18.694;2023-02-15T17:07:39;122.00;;;57.65;;
25824;SDS011;13658;44.534;18.694;2023-02-15T17:12:52;201.60;;;95.00;;
25824;SDS011;13658;44.534;18.694;2023-02-15T17:17:58;315.85;;;146.30;;
25824;SDS011;13658;44.534;18.694;2023-02-15T17:20:30;334.33;;;155.63;;
25824;SDS011;13658;44.534;18.694;2023-02-15T17:22:57;301.50;;;141.98;;
25824;SDS011;13658;44.534;18.694;2023-02-15T17:25:37;276.40;;;132.88;;
25824;SDS011;13658;44.534;18.694;2023-02-15T17:28:05;173.50;;;83.68;;
25824;SDS011;13658;44.534;18.694;2023-02-15T17:30:42;153.38;;;70.45;;
25824;SDS011;13658;44.534;18.694;2023-02-15T17:33:22;138.10;;;66.80;;
25824;SDS011;13658;44.534;18.694;2023-02-15T17:41:23;200.48;;;92.60;;
25824;SDS011;13658;44.534;18.694;2023-02-15T17:43:49;210.63;;;98.85;;
25824;SDS011;13658;44.534;18.694;2023-02-15T17:46:15;220.43;;;107.25;;
25824;SDS011;13658;44.534;18.694;2023-02-15T17:48:45;246.57;;;115.40;;
25824;SDS011;13658;44.534;18.694;2023-02-15T17:51:13;265.65;;;118.28;;
25824;SDS011;13658;44.534;18.694;2023-02-15T17:53:41;205.18;;;99.22;;
25824;SDS011;13658;44.534;18.694;2023-02-15T17:56:28;168.10;;;77.05;;
25824;SDS011;13658;44.534;18.694;2023-02-15T17:58:54;169.68;;;79.47;;
25824;SDS011;13658;44.534;18.694;2023-02-15T18:01:20;171.88;;;81.60;;
25824;SDS011;13658;44.534;18.694;2023-02-15T18:04:07;134.88;;;64.45;;
25824;SDS011;13658;44.534;18.694;2023-02-15T18:06:54;169.70;;;78.35;;
25824;SDS011;13658;44.534;18.694;2023-02-15T18:09:39;174.15;;;79.97;;
25824;SDS011;13658;44.534;18.694;2023-02-15T18:12:24;197.50;;;88.35;;
25824;SDS011;13658;44.534;18.694;2023-02-15T18:14:52;173.90;;;83.68;;
25824;SDS011;13658;44.534;18.694;2023-02-15T18:17:21;176.30;;;81.07;;
25824;SDS011;13658;44.534;18.694;2023-02-15T18:22:42;174.48;;;82.10;;
25824;SDS011;13658;44.534;18.694;2023-02-15T18:25:13;172.77;;;84.43;;